Time;durP1;ratioP1;P1;durP2;ratioP2;P2;SDS_P1;SDS_P2;PMS_P1;PMS_P2;Temp;Humidity;BMP_temperature;BMP_pressure;BME280_temperature;BME280_humidity;BME280_pressure;Samples;Min_cycle;Max_cycle;Signal;HPM_P1;HPM_P2
2021/04/01 00:01:46;;;;;;;11.13;3.90;;;10.40;1.00;;;13.72;69.46;98409.44;4996637;28;20226;-75
2021/04/01 00:04:13;;;;;;;7.80;3.30;;;10.40;1.00;;;13.64;69.67;98414.22;4998292;28;20218;-75
2021/04/01 00:06:40;;;;;;;9.70;3.37;;;10.20;1.00;;;13.56;70.53;98412.59;4989662;28;20265;-75
2021/04/01 00:09:07;;;;;;;10.30;3.80;;;10.20;1.00;;;13.48;71.81;98403.94;4993732;28;20555;-75
2021/04/01 00:11:34;;;;;;;9.60;3.97;;;10.20;1.00;;;13.55;72.44;98404.75;4991455;28;20227;-75
2021/04/01 00:14:03;;;;;;;8.80;3.80;;;10.20;1.00;;;13.52;71.73;98402.50;4996479;28;20659;-75
2021/04/01 00:16:30;;;;;;;10.00;3.70;;;10.10;1.00;;;13.43;73.14;98401.06;4987282;28;20208;-75
2021/04/01 00:18:57;;;;;;;9.33;3.87;;;10.20;1.00;;;13.49;72.39;98393.00;4989749;28;20212;-75
2021/04/01 00:21:23;;;;;;;8.97;3.80;;;10.20;1.00;;;13.54;71.12;98397.75;4992472;28;20221;-75
2021/04/01 00:23:49;;;;;;;8.03;4.50;;;10.10;1.00;;;13.54;71.47;98389.69;4991077;28;20210;-76
2021/04/01 00:26:16;;;;;;;12.60;4.60;;;10.10;1.00;;;13.56;70.84;98391.13;4992505;28;20210;-76
2021/04/01 00:28:43;;;;;;;10.07;4.30;;;10.20;1.00;;;13.52;71.45;98391.78;4992113;28;20664;-75
2021/04/01 00:31:10;;;;;;;9.70;3.77;;;10.10;1.00;;;13.52;71.21;98391.78;4991841;28;20237;-75
2021/04/01 00:33:36;;;;;;;9.37;4.10;;;10.10;1.00;;;13.48;71.00;98383.31;4991868;28;20724;-75
2021/04/01 00:36:03;;;;;;;11.07;4.03;;;10.00;1.00;;;13.40;71.84;98382.69;4992196;28;20233;-76
2021/04/01 00:38:29;;;;;;;8.33;3.97;;;10.00;1.00;;;13.43;71.51;98380.41;4998712;28;20208;-76
2021/04/01 00:40:56;;;;;;;8.80;3.60;;;10.00;1.00;;;13.38;71.90;98385.59;4989775;28;20249;-75
2021/04/01 00:43:22;;;;;;;10.83;4.23;;;9.90;1.00;;;13.37;71.92;98385.81;4991774;28;20199;-76
2021/04/01 00:45:50;;;;;;;8.43;4.17;;;9.90;1.00;;;13.34;72.89;98389.75;4987537;28;20294;-75
2021/04/01 00:48:17;;;;;;;8.40;4.07;;;9.90;1.00;;;13.38;72.36;98388.28;4989701;28;20565;-76
2021/04/01 00:50:43;;;;;;;7.40;4.27;;;9.90;1.00;;;13.29;72.93;98386.88;4992074;28;20284;-75
2021/04/01 00:53:10;;;;;;;9.37;4.27;;;9.90;1.00;;;13.24;72.33;98383.97;4991764;28;20671;-75
2021/04/01 00:55:37;;;;;;;11.20;4.60;;;9.80;1.00;;;13.19;73.82;98380.28;4992022;28;20628;-76
2021/04/01 00:58:05;;;;;;;9.70;3.60;;;9.80;1.00;;;13.20;74.41;98372.03;4982852;28;20367;-75
2021/04/01 01:00:32;;;;;;;9.10;4.30;;;9.80;1.00;;;13.22;74.21;98379.88;4992092;28;20214;-75
2021/04/01 01:03:01;;;;;;;10.70;5.10;;;9.70;1.00;;;13.16;73.96;98369.97;4992207;28;20226;-75
2021/04/01 01:05:31;;;;;;;12.73;4.70;;;9.70;1.00;;;13.18;73.85;98368.72;4987687;28;20294;-75
2021/04/01 01:07:58;;;;;;;9.47;3.80;;;9.70;1.00;;;13.11;74.56;98367.09;4993877;28;20205;-75
2021/04/01 01:10:29;;;;;;;11.37;4.40;;;9.70;1.00;;;13.08;74.82;98372.88;4991643;28;20656;-75
2021/04/01 01:12:56;;;;;;;9.03;4.20;;;9.60;1.00;;;13.06;74.30;98374.94;4995711;28;20202;-75
2021/04/01 01:15:23;;;;;;;13.60;4.73;;;9.60;1.00;;;12.99;74.75;98366.06;4994399;28;20207;-75
2021/04/01 01:17:51;;;;;;;10.60;4.37;;;9.50;1.00;;;12.97;75.74;98368.13;4995703;28;20205;-75
2021/04/01 01:20:22;;;;;;;13.07;4.73;;;9.50;1.00;;;12.86;77.60;98358.81;4994397;28;20669;-75
2021/04/01 01:22:51;;;;;;;14.83;5.47;;;9.50;1.00;;;12.84;78.02;98360.91;4990245;28;20290;-75
2021/04/01 01:25:21;;;;;;;16.07;5.83;;;9.40;1.00;;;12.84;77.38;98358.22;4994287;28;20649;-75
2021/04/01 01:27:48;;;;;;;11.00;5.00;;;9.40;1.00;;;12.86;77.76;98355.34;4985743;28;20200;-75
2021/04/01 01:30:19;;;;;;;12.83;4.83;;;9.40;1.00;;;12.84;78.61;98360.91;4996247;28;20229;-75
2021/04/01 01:32:49;;;;;;;9.63;4.80;;;9.40;1.00;;;12.86;78.32;98355.34;4984086;28;20192;-76
2021/04/01 01:35:18;;;;;;;11.77;4.70;;;9.40;1.00;;;12.83;78.20;98351.22;4996054;28;20815;-75
2021/04/01 01:37:52;;;;;;;11.07;4.80;;;9.40;1.00;;;12.91;77.31;98347.50;5009127;28;20194;-75
2021/04/01 01:40:20;;;;;;;13.17;5.07;;;9.30;1.00;;;12.91;77.94;98352.88;4992801;28;20200;-76
2021/04/01 01:42:48;;;;;;;10.80;5.03;;;9.30;1.00;;;12.87;77.65;98352.44;4988769;28;20204;-76
2021/04/01 01:45:16;;;;;;;14.77;5.80;;;9.30;1.00;;;12.92;77.79;98354.50;4986151;28;20210;-75
2021/04/01 01:47:43;;;;;;;9.60;4.37;;;9.30;1.00;;;12.84;78.63;98340.28;4980594;28;20215;-75
2021/04/01 01:50:12;;;;;;;11.17;4.47;;;9.30;1.00;;;12.78;78.86;98342.97;4994876;28;20723;-76
2021/04/01 01:52:39;;;;;;;9.50;4.70;;;9.20;1.00;;;12.71;79.19;98333.31;4986513;28;20202;-75
2021/04/01 01:55:07;;;;;;;9.93;4.60;;;9.10;1.00;;;12.63;79.05;98340.50;4995030;28;20294;-76
2021/04/01 01:57:35;;;;;;;12.50;4.70;;;9.00;1.00;;;12.55;80.32;98339.88;4995117;28;20753;-75
2021/04/01 02:00:06;;;;;;;12.73;4.70;;;9.00;1.00;;;12.52;81.64;98332.25;4994476;28;20204;-76
2021/04/01 02:02:32;;;;;;;9.70;4.23;;;9.10;1.00;;;12.54;81.86;98331.00;4997965;28;20192;-75
2021/04/01 02:04:59;;;;;;;10.70;4.17;;;9.10;1.00;;;12.52;81.77;98334.91;4996656;28;20665;-75
2021/04/01 02:07:26;;;;;;;9.57;3.60;;;9.10;1.00;;;12.60;80.59;98334.72;4992516;28;20202;-75
2021/04/01 02:09:52;;;;;;;7.90;4.73;;;9.10;1.00;;;12.54;80.25;98325.66;4994558;28;20370;-75
2021/04/01 02:12:19;;;;;;;10.87;4.90;;;9.00;1.00;;;12.51;80.41;98321.75;4994855;28;20221;-75
2021/04/01 02:14:46;;;;;;;12.53;4.30;;;8.90;1.00;;;12.42;83.34;98331.00;4993294;28;20199;-75
2021/04/01 02:17:19;;;;;;;13.13;4.47;;;8.90;1.00;;;12.43;83.98;98316.59;4994278;28;20252;-76
2021/04/01 02:19:45;;;;;;;13.77;4.77;;;8.90;1.00;;;12.41;83.08;98316.78;4989400;28;20200;-75
2021/04/01 02:22:12;;;;;;;13.43;5.00;;;9.00;1.00;;;12.48;81.35;98318.44;4994674;28;20229;-76
2021/04/01 02:24:38;;;;;;;15.60;5.10;;;8.90;1.00;;;12.38;81.81;98315.34;4995083;28;20300;-76
2021/04/01 02:27:06;;;;;;;9.53;5.30;;;8.90;1.00;;;12.37;82.58;98312.91;4988003;28;20305;-75
2021/04/01 02:29:33;;;;;;;10.80;5.27;;;8.80;1.00;;;12.32;83.53;98321.53;4994054;28;20598;-75
2021/04/01 02:32:00;;;;;;;14.40;5.53;;;8.90;1.00;;;12.31;83.00;98315.56;4997190;28;20589;-75
2021/04/01 02:34:26;;;;;;;10.10;5.03;;;8.80;1.00;;;12.33;83.30;98317.00;5006787;28;20205;-75
2021/04/01 02:36:53;;;;;;;11.10;4.63;;;8.80;1.00;;;12.23;84.46;98313.91;4984069;28;20886;-75
2021/04/01 02:39:19;;;;;;;10.60;4.77;;;8.80;1.00;;;12.34;83.18;98318.66;4994642;28;20201;-75
2021/04/01 02:41:46;;;;;;;13.40;5.53;;;8.80;1.00;;;12.26;84.70;98310.81;4994906;28;20225;-75
2021/04/01 02:44:13;;;;;;;10.20;4.60;;;8.80;1.00;;;12.32;84.46;98314.53;4994165;28;20215;-76
2021/04/01 02:46:39;;;;;;;10.07;5.40;;;8.80;1.00;;;12.27;83.89;98317.00;4992934;28;20806;-76
2021/04/01 02:49:06;;;;;;;9.37;4.60;;;8.70;1.00;;;12.25;84.24;98319.88;5005351;28;20240;-76
2021/04/01 02:51:33;;;;;;;11.77;4.60;;;8.70;1.00;;;12.20;85.55;98316.19;4993616;28;20223;-76
2021/04/01 02:54:00;;;;;;;8.93;4.47;;;8.80;1.00;;;12.15;85.78;98315.97;4999720;28;20240;-76
2021/04/01 02:56:26;;;;;;;15.70;5.27;;;8.70;1.00;;;12.10;85.91;98316.56;4980843;28;20661;-76
2021/04/01 02:58:53;;;;;;;7.87;4.23;;;8.70;1.00;;;12.08;86.95;98318.63;4995458;28;20208;-76
2021/04/01 03:01:21;;;;;;;9.07;3.83;;;8.70;1.00;;;12.03;87.49;98315.72;4983179;28;20221;-76
2021/04/01 03:03:50;;;;;;;9.87;4.53;;;8.70;1.00;;;12.12;87.32;98313.69;4991175;28;20205;-76
2021/04/01 03:06:17;;;;;;;7.77;4.07;;;8.60;1.00;;;12.08;87.75;98311.41;5003676;28;20573;-76
2021/04/01 03:08:44;;;;;;;10.70;4.13;;;8.60;1.00;;;12.11;87.09;98312.84;4985996;28;20212;-77
2021/04/01 03:11:11;;;;;;;11.23;5.60;;;8.60;1.00;;;12.07;87.74;98316.13;5001357;28;20233;-76
2021/04/01 03:13:37;;;;;;;9.10;4.53;;;8.50;1.00;;;11.95;90.12;98313.22;4996101;28;20258;-76
2021/04/01 03:16:04;;;;;;;9.90;4.20;;;8.60;1.00;;;12.01;90.17;98316.94;4990874;28;20674;-76
2021/04/01 03:18:31;;;;;;;9.67;4.60;;;8.60;1.00;;;12.10;89.39;98313.88;4992054;28;20204;-76
2021/04/01 03:20:57;;;;;;;9.87;3.93;;;8.60;1.00;;;12.11;89.44;98306.69;4996294;28;20224;-75
2021/04/01 03:23:26;;;;;;;9.23;4.07;;;8.60;1.00;;;12.06;90.29;98311.81;4996712;28;20209;-77
2021/04/01 03:25:52;;;;;;;9.10;4.10;;;8.60;1.00;;;12.12;89.56;98309.16;4998157;28;20622;-76
2021/04/01 03:28:19;;;;;;;6.90;3.67;;;8.60;1.00;;;12.05;90.52;98305.63;4995090;28;20206;-76
2021/04/01 03:30:50;;;;;;;6.63;3.60;;;8.50;1.00;;;12.05;90.75;98310.19;4990867;28;20260;-76
2021/04/01 03:33:17;;;;;;;13.57;4.37;;;8.50;1.00;;;11.83;93.43;98310.31;4990538;28;20292;-75
2021/04/01 03:35:43;;;;;;;9.63;3.70;;;8.50;1.00;;;11.94;92.97;98314.25;4994770;28;20200;-76
2021/04/01 03:38:12;;;;;;;7.97;3.63;;;8.50;1.00;;;11.98;91.07;98308.28;4996401;28;20726;-75
2021/04/01 03:40:39;;;;;;;9.97;3.70;;;8.50;1.00;;;11.96;91.40;98308.72;4989154;28;20222;-75
2021/04/01 03:43:06;;;;;;;8.50;3.67;;;8.50;1.00;;;12.00;91.23;98304.59;4994756;28;20292;-78
2021/04/01 03:45:32;;;;;;;8.03;3.70;;;8.50;1.00;;;11.96;90.98;98306.84;4999951;28;20208;-76
2021/04/01 03:47:59;;;;;;;9.53;4.50;;;8.40;1.00;;;11.95;91.10;98312.41;4999996;28;20200;-75
2021/04/01 03:50:25;;;;;;;8.33;4.20;;;8.30;1.00;;;11.88;91.55;98305.19;4993839;28;20234;-76
2021/04/01 03:52:52;;;;;;;8.53;3.97;;;8.30;1.00;;;11.83;91.71;98310.31;4993077;28;20561;-75
2021/04/01 03:55:33;;;;;;;11.57;5.17;;;;;;;11.76;91.96;98311.31;4991445;28;20255;-76
2021/04/01 03:58:06;;;;;;;9.43;4.33;;;;;;;11.69;92.74;98317.69;4992529;28;20205;-76
2021/04/01 04:00:34;;;;;;;8.10;4.17;;;;;;;11.58;93.14;98317.19;4976471;28;20221;-76
2021/04/01 04:03:09;;;;;;;8.73;4.23;;;;;;;11.52;94.59;98317.16;4989920;28;20201;-76
2021/04/01 04:05:46;;;;;;;10.07;4.90;;;;;;;11.57;94.12;98315.53;4999280;28;20261;-77
2021/04/01 04:11:04;;;;;;;16.20;5.33;;;;;;;11.70;91.93;98328.16;4988606;28;20223;-76
2021/04/01 04:13:36;;;;;;;9.43;4.40;;;;;;;11.77;90.34;98324.47;5000785;28;20205;-78
2021/04/01 04:16:03;;;;;;;8.33;4.53;;;;;;;11.68;90.75;98322.19;4984890;28;20204;-77
2021/04/01 04:18:30;;;;;;;8.90;4.40;;;;;;;11.65;90.93;98332.47;4991062;28;20208;-77
2021/04/01 04:20:57;;;;;;;9.93;4.67;;;;;;;11.56;91.06;98326.44;4994432;28;20763;-76
2021/04/01 04:23:24;;;;;;;13.87;4.67;;;;;;;11.66;89.37;98320.75;4984500;28;20204;-77
2021/04/01 04:25:53;;;;;;;12.20;4.70;;;;;;;11.70;89.09;98330.81;4992916;28;20564;-77
2021/04/01 04:28:28;;;;;;;9.83;4.57;;;;;;;11.73;89.36;98317.06;4992979;28;20615;-76
2021/04/01 04:30:56;;;;;;;12.27;4.80;;;;;;;11.77;89.24;98312.97;4992815;28;20231;-77
2021/04/01 04:33:23;;;;;;;11.60;4.77;;;;;;;11.70;90.29;98308.63;4991004;28;20200;-76
2021/04/01 04:35:50;;;;;;;11.23;4.60;;;;;;;11.58;91.45;98322.56;4992247;28;20204;-76
2021/04/01 04:38:17;;;;;;;10.57;4.53;;;;;;;11.62;91.52;98319.50;4994403;28;20205;-77
2021/04/01 04:40:44;;;;;;;9.07;4.10;;;;;;;11.66;90.48;98315.41;4998283;28;20595;-77
2021/04/01 04:43:11;;;;;;;11.13;4.33;;;;;;;11.64;91.26;98326.28;4987457;28;20685;-76
2021/04/01 04:45:37;;;;;;;9.47;4.40;;;;;;;11.53;93.13;98326.84;5002075;28;20200;-77
2021/04/01 04:48:06;;;;;;;12.07;4.53;;;;;;;11.57;92.37;98323.53;4994546;28;20206;-77
2021/04/01 04:50:32;;;;;;;6.87;4.00;;;;;;;11.53;92.93;98333.00;4997576;28;20238;-76
2021/04/01 04:52:59;;;;;;;11.90;4.90;;;;;;;11.42;94.38;98332.75;5001570;28;20200;-77
2021/04/01 04:55:26;;;;;;;14.77;5.20;;;;;;;11.42;95.73;98332.75;4991878;28;20303;-76
2021/04/01 04:57:57;;;;;;;11.83;4.60;;;;;;;11.46;96.68;98336.69;4998327;28;20809;-77
2021/04/01 05:06:00;;;;;;;11.90;4.43;;;;;;;11.73;93.69;98334.94;4989602;28;20670;-76
2021/04/01 05:08:27;;;;;;;12.90;4.67;;;;;;;11.73;94.04;98333.13;4999192;28;20200;-76
2021/04/01 05:10:54;;;;;;;9.23;4.30;;;;;;;11.86;93.03;98330.47;4992243;28;20319;-77
2021/04/01 05:13:20;;;;;;;31.80;4.77;;;;;;;11.95;92.54;98331.13;4994256;28;20211;-76
2021/04/01 05:15:48;;;;;;;48.00;6.13;;;;;;;11.98;92.55;98332.34;4997762;28;20660;-76
2021/04/01 05:18:25;;;;;;;24.50;5.03;;;;;;;12.01;92.78;98333.00;4990441;28;20657;-76
2021/04/01 05:20:53;;;;;;;17.60;4.67;;;;;;;12.03;92.95;98337.13;4995733;28;20303;-75
2021/04/01 05:23:31;;;;;;;9.77;4.33;;;;;;;12.01;93.20;98338.34;4998195;28;20203;-76
2021/04/01 05:26:35;;;;;;;7.73;4.50;;;;;;;12.00;93.17;98339.38;4994541;28;20661;-76
2021/04/01 05:29:03;;;;;;;13.47;4.70;;;;;;;12.07;92.63;98353.59;4994092;28;20677;-76
2021/04/01 05:31:34;;;;;;;13.57;4.70;;;;;;;12.12;91.96;98348.47;4992535;28;20223;-76
2021/04/01 05:34:02;;;;;;;16.40;4.43;;;;;;;12.18;92.96;98355.66;4998421;28;20209;-76
2021/04/01 05:36:33;;;;;;;11.57;4.50;;;;;;;12.27;92.69;98352.63;4992962;28;20203;-81
2021/04/01 05:39:00;;;;;;;17.10;4.23;;;;;;;12.34;93.02;98356.13;5001701;28;20294;-77
2021/04/01 05:41:28;;;;;;;16.87;4.63;;;;;;;12.49;90.90;98357.56;4994304;28;20225;-77
2021/04/01 05:44:03;;;;;;;23.20;5.20;;;8.70;1.00;;;12.68;89.70;98355.97;4995619;28;20566;-82
2021/04/01 05:46:34;;;;;;;14.83;4.43;;;8.80;1.00;;;12.81;88.86;98360.50;4991215;28;20192;-74
2021/04/01 05:49:14;;;;;;;14.97;4.83;;;8.90;1.00;;;12.87;88.33;98360.47;4998972;28;20204;-77
2021/04/01 06:03:32;;;;;;;12.57;4.10;;;9.60;1.00;;;13.65;83.17;98363.06;4989931;28;20223;-76
2021/04/01 06:06:06;;;;;;;17.20;4.70;;;9.70;1.00;;;13.73;82.48;98364.69;4993229;28;20208;-76
2021/04/01 06:08:41;;;;;;;12.03;4.63;;;9.80;1.00;;;13.81;81.73;98359.06;4997462;28;20575;-77
2021/04/01 06:11:08;;;;;;;17.07;4.70;;;9.90;1.00;;;13.89;80.99;98362.34;4996849;28;20234;-80
2021/04/01 06:13:45;;;;;;;9.60;4.30;;;10.00;1.00;;;13.90;80.74;98365.84;4991960;28;20368;-74
2021/04/01 06:16:12;;;;;;;10.93;4.20;;;10.10;1.00;;;14.03;80.39;98369.28;4989636;28;20290;-74
2021/04/01 06:18:43;;;;;;;13.93;4.37;;;10.10;1.00;;;14.04;80.48;98365.56;4994871;28;20206;-75
2021/04/01 06:21:13;;;;;;;8.90;4.90;;;10.20;1.00;;;14.23;79.48;98361.19;4993141;28;20276;-74
2021/04/01 06:23:43;;;;;;;13.90;4.90;;;10.30;1.00;;;14.32;77.51;98359.88;4992851;28;20261;-85
2021/04/01 06:26:18;;;;;;;12.50;4.53;;;10.40;1.00;;;14.55;75.67;98377.09;4996603;28;20212;-78
2021/04/01 06:28:50;;;;;;;8.93;4.97;;;10.60;1.00;;;14.78;75.01;98377.31;4994811;28;20208;-77
2021/04/01 06:31:22;;;;;;;11.27;4.73;;;10.70;1.00;;;14.98;73.25;98372.63;4994120;28;20262;-76
2021/04/01 06:33:50;;;;;;;8.60;4.30;;;10.90;1.00;;;15.20;71.52;98378.41;4994565;28;20279;-74
2021/04/01 06:36:20;;;;;;;11.37;4.43;;;11.00;1.00;;;15.44;69.75;98381.09;4994859;28;20578;-74
2021/04/01 06:38:47;;;;;;;10.43;4.90;;;11.20;1.00;;;15.74;67.56;98379.31;5002728;28;20208;-75
2021/04/01 06:41:23;;;;;;;17.43;4.80;;;11.50;1.00;;;15.93;65.08;98389.06;5001936;28;20224;-71
2021/04/01 06:44:15;;;;;;;13.83;4.77;;;11.80;1.00;;;16.11;62.72;98385.53;4990594;28;20222;-78
2021/04/01 06:46:46;;;;;;;17.23;4.73;;;12.10;1.00;;;16.41;61.05;98381.00;4996444;28;20209;-75
2021/04/01 06:49:35;;;;;;;17.83;4.70;;;12.30;1.00;;;16.81;60.05;98382.88;4997066;28;20211;-75
2021/04/01 06:52:15;;;;;;;14.87;4.80;;;12.50;1.00;;;16.11;59.84;98380.94;4993429;28;20302;-73
2021/04/01 06:54:55;;;;;;;16.97;5.20;;;12.60;1.00;;;16.25;59.15;98382.41;4998853;28;20673;-75
2021/04/01 06:57:29;;;;;;;13.93;5.20;;;12.60;1.00;;;16.58;59.27;98380.13;5000438;28;20744;-75
2021/04/01 07:00:16;;;;;;;11.27;5.23;;;12.70;1.00;;;16.90;58.44;98381.50;4993819;28;20250;-75
2021/04/01 07:02:53;;;;;;;12.97;5.30;;;12.90;1.00;;;17.01;57.51;98379.84;4990652;28;20699;-74
2021/04/01 07:05:26;;;;;;;8.43;4.83;;;12.90;1.00;;;17.06;55.60;98380.81;4994131;28;20318;-75
2021/04/01 07:07:56;;;;;;;14.07;5.17;;;13.00;1.00;;;17.03;55.09;98377.75;4992713;28;20292;-81
2021/04/01 07:10:39;;;;;;;16.50;5.87;;;13.00;1.00;;;17.06;55.18;98372.72;5001619;28;20227;-82
2021/04/01 07:13:14;;;;;;;15.23;6.10;;;13.00;1.00;;;16.82;55.62;98379.13;4993418;28;20220;-75
2021/04/01 07:15:44;;;;;;;13.80;5.17;;;13.00;1.00;;;16.62;58.29;98375.91;4992473;28;20595;-75
2021/04/01 07:18:30;;;;;;;22.97;5.13;;;13.00;1.00;;;17.03;56.59;98375.88;4994323;28;20360;-76
2021/04/01 07:21:30;;;;;;;10.97;5.20;;;13.10;1.00;;;16.78;57.39;98377.13;4989758;28;20310;-74
2021/04/01 07:30:43;;;;;;;18.93;5.70;;;13.30;1.00;;;16.94;58.21;98368.34;4990486;28;20212;-76
2021/04/01 07:35:57;;;;;;;15.07;5.67;;;13.80;1.00;;;17.94;51.00;98376.09;4993141;28;20196;-76
2021/04/01 07:46:52;;;;;;;11.27;4.93;;;14.80;1.00;;;19.08;47.73;98392.88;4992610;28;20211;-77
2021/04/01 07:49:23;;;;;;;14.40;5.20;;;15.20;1.00;;;18.88;45.78;98393.38;4992764;28;20299;-75
2021/04/01 07:52:00;;;;;;;12.93;5.60;;;15.50;1.00;;;17.88;48.75;98385.97;4992347;28;20744;-75
2021/04/01 07:54:40;;;;;;;15.03;5.00;;;15.50;1.00;;;18.24;47.77;98387.53;4993214;28;20232;-75
2021/04/01 07:57:24;;;;;;;17.40;5.33;;;15.50;1.00;;;18.27;48.14;98384.31;4992940;28;20256;-75
2021/04/01 08:00:04;;;;;;;17.47;5.53;;;15.40;1.00;;;18.54;47.69;98388.16;4989815;28;20205;-76
2021/04/01 08:05:25;;;;;;;14.57;6.20;;;15.70;1.00;;;19.62;44.63;98394.84;4988832;28;20578;-76
2021/04/01 08:07:55;;;;;;;18.70;5.83;;;16.00;1.00;;;19.47;43.73;98395.47;4992082;28;20292;-76
2021/04/01 08:10:27;;;;;;;13.47;6.00;;;16.40;1.00;;;19.34;44.88;98390.38;4991398;28;20231;-76
2021/04/01 08:13:07;;;;;;;19.23;5.43;;;16.50;1.00;;;19.31;45.91;98384.63;4991670;28;20572;-76
2021/04/01 08:15:41;;;;;;;17.77;5.90;;;16.40;1.00;;;18.61;46.53;98381.53;4987269;28;20213;-76
2021/04/01 08:18:16;;;;;;;11.40;5.20;;;16.20;1.00;;;18.90;46.08;98379.59;4993129;28;20215;-80
2021/04/01 08:20:45;;;;;;;17.00;4.97;;;16.00;1.00;;;18.83;46.25;98382.44;4997891;28;20225;-82
2021/04/01 08:23:16;;;;;;;15.43;6.00;;;16.00;1.00;;;18.56;46.78;98376.03;4994991;28;20210;-78
2021/04/01 08:25:52;;;;;;;20.40;5.70;;;15.90;1.00;;;18.83;46.85;98376.22;4995372;28;20212;-81
2021/04/01 08:33:57;;;;;;;15.77;5.50;;;16.40;1.00;;;19.42;44.89;98375.59;4988938;28;20690;-80
2021/04/01 08:36:27;;;;;;;13.20;5.83;;;16.60;1.00;;;20.48;43.06;98370.50;4993835;28;20208;-81
2021/04/01 08:38:54;;;;;;;16.67;5.20;;;16.90;1.00;;;20.60;41.26;98382.84;4994108;28;20289;-81
2021/04/01 08:41:38;;;;;;;21.10;5.67;;;17.30;1.00;;;20.10;42.24;98386.84;4993633;28;20242;-78
2021/04/01 08:44:48;;;;;;;18.87;5.30;;;17.60;1.00;;;20.48;41.39;98379.47;4992068;28;20597;-78
2021/04/01 08:47:24;;;;;;;14.70;5.40;;;17.70;1.00;;;20.66;41.05;98375.56;4990413;28;20223;-79
2021/04/01 08:50:04;;;;;;;11.57;4.77;;;17.80;1.00;;;20.88;40.89;98377.16;4990045;28;20210;-81
2021/04/01 08:53:17;;;;;;;21.20;5.57;;;18.00;1.00;;;19.91;43.32;98380.09;4993015;28;20310;-78
2021/04/01 08:55:52;;;;;;;12.43;5.10;;;17.80;1.00;;;20.99;41.61;98376.22;4992446;28;20618;-79
2021/04/01 08:58:35;;;;;;;19.93;5.07;;;17.80;1.00;;;21.33;39.87;98387.63;4994633;28;20258;-80
2021/04/01 09:01:14;;;;;;;11.30;5.30;;;18.40;1.00;;;20.19;42.65;98379.94;4990218;28;20582;-77
2021/04/01 09:03:42;;;;;;;11.43;3.80;;;18.10;1.00;;;20.93;42.15;98373.72;4987658;28;20270;-80
2021/04/01 09:06:12;;;;;;;16.60;5.60;;;18.20;1.00;;;21.28;40.28;98379.44;4991566;28;20685;-79
2021/04/01 09:08:45;;;;;;;11.73;5.07;;;18.70;1.00;;;21.43;40.90;98366.78;4992472;28;20196;-79
2021/04/01 09:11:12;;;;;;;13.83;5.03;;;18.80;1.00;;;21.36;41.14;98377.06;4992475;28;20314;-79
2021/04/01 09:13:45;;;;;;;15.30;4.50;;;18.90;1.00;;;21.21;40.96;98368.78;4992734;28;20253;-80
2021/04/01 09:16:23;;;;;;;13.03;4.47;;;18.80;1.00;;;21.37;40.81;98367.00;4992395;28;20231;-79
2021/04/01 09:18:50;;;;;;;12.23;4.57;;;18.80;1.00;;;22.06;40.03;98366.63;4993348;28;20203;-80
2021/04/01 09:21:17;;;;;;;10.23;4.00;;;19.00;1.00;;;21.10;40.69;98369.78;4993049;28;20310;-81
2021/04/01 09:23:47;;;;;;;11.87;3.97;;;18.90;1.00;;;20.84;40.37;98369.78;4989567;28;20200;-77
2021/04/01 09:26:15;;;;;;;10.13;4.13;;;18.70;1.00;;;21.22;40.60;98366.88;4996350;28;20608;-80
2021/04/01 09:28:43;;;;;;;8.87;4.23;;;18.60;1.00;;;20.89;41.24;98365.28;4995870;28;20196;-78
2021/04/01 09:31:13;;;;;;;10.13;4.10;;;18.60;1.00;;;21.01;41.68;98363.19;4989635;28;20239;-78
2021/04/01 09:33:42;;;;;;;14.30;4.47;;;18.60;1.00;;;21.13;42.83;98357.59;4996286;28;20313;-77
2021/04/01 09:36:11;;;;;;;10.03;4.23;;;18.60;1.00;;;20.94;42.81;98364.47;4996110;28;20228;-79
2021/04/01 09:38:40;;;;;;;9.27;4.07;;;18.50;1.00;;;21.27;42.75;98358.78;4996503;28;20204;-78
2021/04/01 09:41:07;;;;;;;14.23;4.30;;;18.60;1.00;;;21.37;42.88;98356.13;4996143;28;20307;-78
2021/04/01 09:43:34;;;;;;;16.50;4.83;;;18.70;1.00;;;21.19;42.45;98356.56;4996247;28;20200;-77
2021/04/01 09:46:12;;;;;;;12.30;3.90;;;18.70;1.00;;;21.30;44.02;98352.84;4996433;28;20208;-77
2021/04/01 09:48:47;;;;;;;13.53;3.97;;;18.80;1.00;;;21.49;43.13;98357.56;4996574;28;20208;-77
2021/04/01 09:51:18;;;;;;;10.00;4.07;;;18.90;1.00;;;21.51;41.54;98365.47;4989757;28;20685;-79
2021/04/01 09:53:51;;;;;;;14.57;4.27;;;19.10;1.00;;;21.68;40.74;98360.69;4996749;28;20188;-80
2021/04/01 09:56:24;;;;;;;9.57;4.00;;;19.20;1.00;;;22.22;40.88;98359.34;4997008;28;20263;-81
2021/04/01 09:58:52;;;;;;;17.70;4.40;;;19.40;1.00;;;22.09;40.62;98354.41;4996250;28;20188;-81
2021/04/01 10:01:27;;;;;;;11.73;3.90;;;19.60;1.00;;;22.14;39.69;98357.94;4996353;28;20723;-81
2021/04/01 10:04:04;;;;;;;9.70;3.70;;;19.70;1.00;;;21.92;40.28;98354.59;4995578;28;20636;-81
2021/04/01 10:06:37;;;;;;;12.60;4.37;;;19.70;1.00;;;22.35;40.21;98337.91;4992474;28;20258;-80
2021/04/01 10:09:09;;;;;;;13.57;4.20;;;19.80;1.00;;;21.86;40.04;98339.34;4998661;28;20200;-80
2021/04/01 10:11:43;;;;;;;9.53;4.53;;;19.80;1.00;;;22.30;39.52;98342.53;4998831;28;20236;-80
2021/04/01 10:14:12;;;;;;;8.43;3.27;;;19.90;1.00;;;23.65;37.22;98339.88;4994843;28;20211;-80
2021/04/01 10:16:52;;;;;;;9.93;3.77;;;20.30;1.00;;;23.10;37.39;98332.59;4994053;28;20227;-84
2021/04/01 10:19:24;;;;;;;11.97;4.13;;;20.50;1.00;;;22.88;37.74;98337.50;4997566;28;20243;-85
2021/04/01 10:21:51;;;;;;;10.83;3.40;;;20.50;1.00;;;23.20;37.39;98324.44;5000278;28;20232;-83
2021/04/01 10:24:28;;;;;;;12.77;3.50;;;20.70;1.00;;;23.17;37.57;98332.31;5002582;28;20212;-83
2021/04/01 10:27:05;;;;;;;13.93;3.77;;;20.70;1.00;;;23.64;36.81;98320.00;4998528;28;20252;-84
2021/04/01 10:29:43;;;;;;;10.80;3.00;;;20.90;1.00;;;23.21;36.57;98325.25;4995130;28;20213;-85
2021/04/01 10:32:11;;;;;;;14.50;4.03;;;20.80;1.00;;;23.45;36.21;98318.97;4994787;28;20781;-83
2021/04/01 10:34:45;;;;;;;9.70;3.77;;;21.00;1.00;;;23.63;35.73;98318.38;4996362;28;20200;-84
2021/04/01 10:37:14;;;;;;;5.73;2.80;;;21.10;1.00;;;23.69;35.32;98311.00;4991043;28;20332;-84
2021/04/01 10:39:42;;;;;;;11.27;4.00;;;21.20;1.00;;;23.63;35.72;98309.38;4994790;28;20235;-83
2021/04/01 10:42:11;;;;;;;9.57;3.17;;;21.30;1.00;;;23.32;35.82;98303.19;4993281;28;20255;-79
2021/04/01 10:44:40;;;;;;;7.70;2.70;;;21.30;1.00;;;23.98;35.11;98287.47;4994358;28;20254;-78
2021/04/01 10:47:08;;;;;;;9.37;3.30;;;21.50;1.00;;;24.33;34.38;98287.28;4992429;28;20208;-77
2021/04/01 10:49:38;;;;;;;8.03;3.00;;;21.80;1.00;;;23.77;34.25;98297.59;4995618;28;20203;-81
2021/04/01 10:52:09;;;;;;;10.63;2.90;;;21.60;1.00;;;23.60;34.81;98285.41;4987225;28;20246;-87
2021/04/01 10:54:39;;;;;;;5.37;2.50;;;21.50;1.00;;;23.56;34.76;98278.88;4992924;28;20206;-84
2021/04/01 10:57:08;;;;;;;6.53;2.70;;;21.50;1.00;;;24.30;33.83;98263.28;4997284;28;20212;-86
2021/04/01 10:59:39;;;;;;;9.43;2.53;;;21.70;1.00;;;23.97;33.63;98274.94;4998070;28;20288;-82
2021/04/01 11:02:13;;;;;;;6.23;2.83;;;21.90;1.00;;;24.58;33.90;98266.13;4991459;28;20230;-81
2021/04/01 11:04:43;;;;;;;7.63;2.30;;;21.90;1.00;;;24.97;33.01;98272.38;4997527;28;20706;-82
2021/04/01 11:07:11;;;;;;;9.03;2.93;;;22.10;1.00;;;25.19;32.81;98277.38;4991436;28;20295;-78
2021/04/01 11:09:45;;;;;;;5.23;3.03;;;22.40;1.00;;;24.48;32.97;98271.63;4996302;28;20249;-83
2021/04/01 11:12:18;;;;;;;8.30;2.67;;;22.20;1.00;;;24.80;32.63;98262.97;4992873;28;20230;-78
2021/04/01 11:14:48;;;;;;;8.37;2.63;;;22.40;1.00;;;25.11;32.53;98267.88;4990768;28;20214;-77
2021/04/01 11:17:17;;;;;;;5.40;2.30;;;22.50;1.00;;;24.46;33.35;98254.72;5000844;28;20813;-80
2021/04/01 11:19:47;;;;;;;10.07;2.53;;;22.20;1.00;;;25.48;31.67;98256.34;4994594;28;20211;-79
2021/04/01 11:22:15;;;;;;;5.38;2.30;;;22.50;1.00;;;25.58;30.60;98258.97;4997021;28;20230;-77
2021/04/01 11:24:42;;;;;;;5.87;2.47;;;22.60;1.00;;;25.14;31.00;98259.09;4994655;28;20665;-76
2021/04/01 11:27:11;;;;;;;5.03;2.23;;;22.70;1.00;;;25.47;30.84;98257.41;4994395;28;20212;-77
2021/04/01 11:29:40;;;;;;;6.63;1.90;;;22.70;1.00;;;25.68;30.24;98250.59;4996529;28;20214;-77
2021/04/01 11:32:20;;;;;;;6.78;2.05;;;22.70;1.00;;;26.02;30.61;98245.84;4998553;28;20249;-77
2021/04/01 11:34:49;;;;;;;6.35;2.40;;;22.80;1.00;;;25.68;31.93;98234.19;4995286;28;20203;-77